TimeCDT,TemperatureF,Dew PointF,Humidity,Sea Level PressureIn,VisibilityMPH,Wind Direction,Wind SpeedMPH,Gust SpeedMPH,PrecipitationIn,Events,Conditions,WindDirDegrees,DateUTC
12:15 AM,63.5,59.9,88,30.02,7.0,NW,8.1,-,N/A,,Overcast,320,2013-10-17 05:15:00
12:35 AM,63.5,59.5,87,30.02,7.0,NW,6.9,-,N/A,,Overcast,310,2013-10-17 05:35:00
12:55 AM,63.5,59.5,87,30.01,7.0,NW,6.9,-,N/A,,Overcast,320,2013-10-17 05:55:00
1:15 AM,63.1,59.2,87,30.02,10.0,NNW,6.9,-,N/A,,Overcast,330,2013-10-17 06:15:00
1:35 AM,63.1,59.2,87,30.01,10.0,NNW,5.8,-,N/A,,Overcast,330,2013-10-17 06:35:00
1:55 AM,63.1,59.2,87,30.02,10.0,NW,6.9,-,N/A,,Overcast,320,2013-10-17 06:55:00
2:15 AM,63.1,59.2,87,30.01,10.0,NNW,9.2,-,N/A,,Overcast,330,2013-10-17 07:15:00
2:35 AM,63.0,59.2,87,30.01,10.0,NW,6.9,-,N/A,,Overcast,320,2013-10-17 07:35:00
2:55 AM,63.0,59.0,87,30.01,10.0,NW,5.8,-,N/A,,Overcast,310,2013-10-17 07:55:00
3:15 AM,61.9,60.4,95,30.02,5.0,NW,8.1,-,N/A,Rain,Rain,310,2013-10-17 08:15:00
3:35 AM,61.7,61.2,98,30.02,7.0,NW,6.9,-,N/A,,Overcast,310,2013-10-17 08:35:00
3:55 AM,61.7,61.0,97,30.01,7.0,NW,5.8,-,N/A,,Overcast,320,2013-10-17 08:55:00
4:15 AM,61.7,61.0,97,30.01,10.0,NW,5.8,-,N/A,,Overcast,320,2013-10-17 09:15:00
4:35 AM,61.7,60.6,96,30.02,10.0,NW,8.1,-,N/A,,Overcast,310,2013-10-17 09:35:00
4:55 AM,61.7,60.8,97,30.01,10.0,NW,5.8,-,N/A,,Overcast,320,2013-10-17 09:55:00
5:15 AM,61.7,60.3,95,30.01,10.0,NW,8.1,-,N/A,,Overcast,320,2013-10-17 10:15:00
5:35 AM,61.7,60.1,94,30.02,10.0,NNW,9.2,-,N/A,Rain,Rain,330,2013-10-17 10:35:00
5:55 AM,61.7,59.9,94,30.02,10.0,NNW,6.9,-,N/A,,Overcast,340,2013-10-17 10:55:00
6:15 AM,61.7,59.9,94,30.02,10.0,NNW,6.9,-,N/A,,Overcast,330,2013-10-17 11:15:00
6:35 AM,61.7,59.9,94,30.02,10.0,North,6.9,-,N/A,,Overcast,350,2013-10-17 11:35:00
6:55 AM,61.7,59.5,93,30.02,10.0,North,8.1,-,N/A,,Overcast,360,2013-10-17 11:55:00
7:15 AM,61.0,59.2,94,30.03,10.0,NNW,4.6,-,N/A,,Scattered Clouds,340,2013-10-17 12:15:00
7:35 AM,60.8,59.0,94,30.04,10.0,NNW,6.9,-,N/A,,Clear,340,2013-10-17 12:35:00
7:55 AM,61.2,59.5,94,30.04,10.0,NNW,6.9,-,N/A,,Mostly Cloudy,340,2013-10-17 12:55:00
8:15 AM,62.6,59.7,90,30.05,10.0,North,8.1,-,N/A,,Mostly Cloudy,360,2013-10-17 13:15:00
8:35 AM,62.8,59.4,89,30.06,10.0,North,6.9,-,N/A,,Overcast,350,2013-10-17 13:35:00
8:55 AM,62.6,59.0,88,30.06,10.0,North,9.2,-,N/A,,Mostly Cloudy,360,2013-10-17 13:55:00
9:15 AM,63.0,58.8,86,30.07,10.0,NNW,10.4,-,N/A,,Mostly Cloudy,340,2013-10-17 14:15:00
9:35 AM,64.8,57.7,78,30.07,10.0,NNW,9.2,-,N/A,,Scattered Clouds,340,2013-10-17 14:35:00
9:55 AM,65.3,56.7,74,30.07,10.0,North,8.1,-,N/A,,Clear,350,2013-10-17 14:55:00
10:15 AM,66.0,56.3,71,30.08,10.0,North,9.2,-,N/A,,Clear,10,2013-10-17 15:15:00
10:35 AM,67.6,57.0,69,30.09,10.0,NNW,4.6,-,N/A,,Clear,340,2013-10-17 15:35:00
10:55 AM,68.2,56.5,66,30.09,10.0,North,9.2,-,N/A,,Clear,360,2013-10-17 15:55:00
11:15 AM,69.8,56.5,63,30.09,10.0,NNW,5.8,-,N/A,,Clear,340,2013-10-17 16:15:00
11:35 AM,70.7,55.8,59,30.09,10.0,North,5.8,-,N/A,,Clear,350,2013-10-17 16:35:00
11:55 AM,70.9,55.6,58,30.08,10.0,NNW,4.6,-,N/A,,Clear,340,2013-10-17 16:55:00
12:15 PM,72.5,55.8,56,30.07,10.0,NNE,5.8,-,N/A,,Clear,20,2013-10-17 17:15:00
12:35 PM,73.4,55.9,54,30.06,10.0,NNE,4.6,-,N/A,,Clear,30,2013-10-17 17:35:00
12:55 PM,73.2,54.7,52,30.05,10.0,WNW,4.6,-,N/A,,Clear,300,2013-10-17 17:55:00
1:15 PM,73.9,55.0,52,30.04,10.0,Calm,Calm,-,N/A,,Clear,0,2013-10-17 18:15:00
1:35 PM,75.0,55.0,50,30.04,10.0,NW,4.6,-,N/A,,Clear,320,2013-10-17 18:35:00
1:55 PM,74.8,54.0,48,30.02,10.0,NW,4.6,-,N/A,,Clear,310,2013-10-17 18:55:00
2:15 PM,75.6,54.5,48,30.01,10.0,NW,4.6,-,N/A,,Clear,320,2013-10-17 19:15:00
2:35 PM,75.7,54.5,48,30.00,10.0,Calm,Calm,-,N/A,,Clear,0,2013-10-17 19:35:00
2:55 PM,75.9,54.5,47,30.00,10.0,Calm,Calm,-,N/A,,Clear,0,2013-10-17 19:55:00
3:15 PM,76.5,54.9,47,30.00,10.0,NNE,5.8,-,N/A,,Clear,30,2013-10-17 20:15:00
3:35 PM,77.0,55.0,47,29.99,10.0,North,4.6,-,N/A,,Clear,350,2013-10-17 20:35:00
3:55 PM,76.8,54.1,45,29.98,10.0,North,4.6,-,N/A,,Clear,360,2013-10-17 20:55:00
4:15 PM,77.5,54.9,45,29.98,10.0,Calm,Calm,-,N/A,,Clear,0,2013-10-17 21:15:00
4:35 PM,77.4,54.5,45,29.98,10.0,North,3.5,-,N/A,,Clear,360,2013-10-17 21:35:00
4:55 PM,76.6,53.8,45,29.98,10.0,Calm,Calm,-,N/A,,Clear,0,2013-10-17 21:55:00
5:15 PM,76.6,54.0,45,29.97,10.0,NNE,4.6,-,N/A,,Clear,20,2013-10-17 22:15:00
5:35 PM,76.1,53.8,46,29.97,10.0,Calm,Calm,-,N/A,,Clear,0,2013-10-17 22:35:00
5:55 PM,75.2,53.8,47,29.97,10.0,Calm,Calm,-,N/A,,Clear,0,2013-10-17 22:55:00
6:15 PM,73.6,54.7,51,29.97,10.0,Calm,Calm,-,N/A,,Clear,0,2013-10-17 23:15:00
6:35 PM,71.8,54.9,55,29.97,10.0,North,3.5,-,N/A,,Clear,360,2013-10-17 23:35:00
6:55 PM,71.1,55.0,57,29.98,10.0,Calm,Calm,-,N/A,,Clear,0,2013-10-17 23:55:00
7:15 PM,69.1,55.8,62,29.98,10.0,Calm,Calm,-,N/A,,Clear,0,2013-10-18 00:15:00
7:35 PM,67.8,55.8,65,29.98,10.0,Calm,Calm,-,N/A,,Clear,0,2013-10-18 00:35:00
7:55 PM,63.9,57.0,78,29.99,10.0,Calm,Calm,-,N/A,,Clear,0,2013-10-18 00:55:00
8:15 PM,64.2,56.8,77,29.99,10.0,Calm,Calm,-,N/A,,Clear,0,2013-10-18 01:15:00
8:35 PM,64.2,56.3,75,30.00,10.0,Calm,Calm,-,N/A,,Clear,0,2013-10-18 01:35:00
8:55 PM,64.6,55.9,74,30.01,10.0,Calm,Calm,-,N/A,,Clear,0,2013-10-18 01:55:00
9:15 PM,64.2,55.6,73,30.01,10.0,Calm,Calm,-,N/A,,Clear,0,2013-10-18 02:15:00
9:35 PM,63.3,55.6,76,30.01,10.0,Calm,Calm,-,N/A,,Clear,0,2013-10-18 02:35:00
9:55 PM,62.2,55.6,79,30.01,10.0,Calm,Calm,-,N/A,,Clear,0,2013-10-18 02:55:00
10:15 PM,60.4,55.8,85,30.01,10.0,Calm,Calm,-,N/A,,Clear,0,2013-10-18 03:15:00
10:35 PM,58.3,56.8,95,30.01,10.0,Calm,Calm,-,N/A,,Clear,0,2013-10-18 03:35:00
10:55 PM,58.3,57.0,96,30.02,10.0,Calm,Calm,-,N/A,,Clear,0,2013-10-18 03:55:00
11:15 PM,57.2,56.7,98,30.01,10.0,Calm,Calm,-,N/A,,Clear,0,2013-10-18 04:15:00
11:35 PM,58.1,57.6,98,30.01,10.0,Calm,Calm,-,N/A,,Clear,0,2013-10-18 04:35:00
11:55 PM,57.0,56.5,98,30.01,10.0,Calm,Calm,-,N/A,,Clear,0,2013-10-18 04:55:00